Marine Rescue Pd30 — PD30 — position and weather

sailwx.info

Track history (hours):
 
Tides and Currents Weather Stations Pressure Air Temp Water Temp Dewpoint Dewpoint Depression Visibility Wind Speed Wind Dir Waves Ship Positions

Marine Rescue Pd30

Last reported at 2018-May-14 01:25 UTC. Time now 2018-May-22 16:04 UTC.
Position S 28°11' E 153°33'.
Warning: this ship's position is 8 days out of date.

Length 10 m.

Type: SAR. MMSI: 503558900.

Date/timePositionNaut miles runAvg speedWind from/ knotsBaromVisibWave heightAir tempDewpointWater temp
2018-May-14 01:25S 28°11' E 153°33'1 1.3
2018-May-14 01:00S 28°10' E 153°33'0 0.0
2018-May-14 00:30S 28°10' E 153°33'0 0.3
2018-May-13 23:59S 28°10' E 153°33'0 0.8
2018-May-13 23:30S 28°11' E 153°33'0 0.0
2018-May-13 01:10S 28°11' E 153°33'0 0.0
2018-May-13 01:00S 28°11' E 153°33'1 1.1
2018-May-13 00:30S 28°11' E 153°33'2 4.9
2018-May-13 00:00S 28°13' E 153°35'0 0.8
2018-May-12 23:30S 28°13' E 153°35'3 6.5
2018-May-12 23:00S 28°10' E 153°33'0 0.6
2018-May-12 22:30S 28°10' E 153°34'1 2.1
2018-May-12 22:00S 28°11' E 153°33'0 0.0
2018-May-12 21:24S 28°11' E 153°33'0 0.0
2018-May-12 01:35S 28°11' E 153°33'0 0.1
2018-May-12 01:30S 28°11' E 153°33'0 0.1
2018-May-12 01:00S 28°11' E 153°33'2 4.2
2018-May-12 00:30S 28°13' E 153°34'0 0.6
2018-May-12 00:01S 28°12' E 153°34'1 1.2
2018-May-11 23:30S 28°12' E 153°34'2 3.1
2018-May-11 23:01S 28°10' E 153°33'4 7.5
2018-May-11 22:31S 28°11' E 153°37'3 6.4
2018-May-11 22:00S 28°13' E 153°35'3 6.1
2018-May-11 21:30S 28°11' E 153°33'0 0.1
2018-May-11 20:59S 28°11' E 153°33'0 0.0
2018-May-11 00:40S 28°11' E 153°33'0 0.0
2018-May-11 00:30S 28°11' E 153°33'0 0.8
2018-May-11 00:01S 28°11' E 153°33'2 5.0
2018-May-10 23:30S 28°12' E 153°35'3 5.3
2018-May-10 23:01S 28°11' E 153°32'0 0.0
2018-May-10 01:01S 28°11' E 153°33'0 0.0
2018-May-10 01:00S 28°11' E 153°33'  
2018-May-06 01:51S 28°11' E 153°33'0 0.0
2018-May-06 01:30S 28°11' E 153°33'0 0.0
2018-May-06 01:00S 28°11' E 153°33'1 2.8
2018-May-06 00:31S 28°12' E 153°34'1 2.8
2018-May-06 00:00S 28°11' E 153°33'0 0.0
2018-May-05 23:30S 28°11' E 153°33'0 0.4
2018-May-05 23:00S 28°11' E 153°32'1 2.3
2018-May-05 22:30S 28°10' E 153°33'2 3.5
2018-May-05 22:00S 28°12' E 153°35'2 3.4
2018-May-05 21:30S 28°11' E 153°33'0 0.8
2018-May-05 21:00S 28°11' E 153°33'0 0.0
2018-May-05 01:25S 28°11' E 153°33'0 0.0
2018-May-05 00:59S 28°11' E 153°33'0 0.0
2018-May-05 00:30S 28°11' E 153°33'0 0.0
2018-May-05 00:00S 28°11' E 153°33'0 0.0
2018-May-04 23:30S 28°11' E 153°33'0 0.8
2018-May-04 23:00S 28°11' E 153°33'3 6.9
2018-May-04 22:30S 28°13' E 153°36'2 3.2
2018-May-04 22:01S 28°12' E 153°34'2 4.2
2018-May-04 21:30S 28°11' E 153°33'0 0.0
2018-May-04 20:59S 28°11' E 153°33'0 0.0
2018-May-04 05:22S 28°11' E 153°33'1 3.5
2018-May-04 05:00S 28°10' E 153°33'1 2.5
2018-May-04 04:29S 28°11' E 153°33'  
Track history (hours):
 
Tides and Currents Weather Stations Pressure Air Temp Water Temp Dewpoint Dewpoint Depression Visibility Wind Speed Wind Dir Waves Ship Positions

Marine Rescue Pd30

Last reported at 2018-May-14 01:25 UTC. Time now 2018-May-22 16:04 UTC.
Position S 28°11' E 153°33'.
Warning: this ship's position is 8 days out of date.

Length 10 m.

Type: SAR. MMSI: 503558900.

Date/timePositionNaut miles runAvg speedWind from/ knotsBaromVisibWave heightAir tempDewpointWater temp
2018-May-14 01:25S 28°11' E 153°33'1 1.3
2018-May-14 01:00S 28°10' E 153°33'0 0.0
2018-May-14 00:30S 28°10' E 153°33'0 0.3
2018-May-13 23:59S 28°10' E 153°33'0 0.8
2018-May-13 23:30S 28°11' E 153°33'0 0.0
2018-May-13 01:10S 28°11' E 153°33'0 0.0
2018-May-13 01:00S 28°11' E 153°33'1 1.1
2018-May-13 00:30S 28°11' E 153°33'2 4.9
2018-May-13 00:00S 28°13' E 153°35'0 0.8
2018-May-12 23:30S 28°13' E 153°35'3 6.5
2018-May-12 23:00S 28°10' E 153°33'0 0.6
2018-May-12 22:30S 28°10' E 153°34'1 2.1
2018-May-12 22:00S 28°11' E 153°33'0 0.0
2018-May-12 21:24S 28°11' E 153°33'0 0.0
2018-May-12 01:35S 28°11' E 153°33'0 0.1
2018-May-12 01:30S 28°11' E 153°33'0 0.1
2018-May-12 01:00S 28°11' E 153°33'2 4.2
2018-May-12 00:30S 28°13' E 153°34'0 0.6
2018-May-12 00:01S 28°12' E 153°34'1 1.2
2018-May-11 23:30S 28°12' E 153°34'2 3.1
2018-May-11 23:01S 28°10' E 153°33'4 7.5
2018-May-11 22:31S 28°11' E 153°37'3 6.4
2018-May-11 22:00S 28°13' E 153°35'3 6.1
2018-May-11 21:30S 28°11' E 153°33'0 0.1
2018-May-11 20:59S 28°11' E 153°33'0 0.0
2018-May-11 00:40S 28°11' E 153°33'0 0.0
2018-May-11 00:30S 28°11' E 153°33'0 0.8
2018-May-11 00:01S 28°11' E 153°33'2 5.0
2018-May-10 23:30S 28°12' E 153°35'3 5.3
2018-May-10 23:01S 28°11' E 153°32'0 0.0
2018-May-10 01:01S 28°11' E 153°33'0 0.0
2018-May-10 01:00S 28°11' E 153°33'  
2018-May-06 01:51S 28°11' E 153°33'0 0.0
2018-May-06 01:30S 28°11' E 153°33'0 0.0
2018-May-06 01:00S 28°11' E 153°33'1 2.8
2018-May-06 00:31S 28°12' E 153°34'1 2.8
2018-May-06 00:00S 28°11' E 153°33'0 0.0
2018-May-05 23:30S 28°11' E 153°33'0 0.4
2018-May-05 23:00S 28°11' E 153°32'1 2.3
2018-May-05 22:30S 28°10' E 153°33'2 3.5
2018-May-05 22:00S 28°12' E 153°35'2 3.4
2018-May-05 21:30S 28°11' E 153°33'0 0.8
2018-May-05 21:00S 28°11' E 153°33'0 0.0
2018-May-05 01:25S 28°11' E 153°33'0 0.0
2018-May-05 00:59S 28°11' E 153°33'0 0.0
2018-May-05 00:30S 28°11' E 153°33'0 0.0
2018-May-05 00:00S 28°11' E 153°33'0 0.0
2018-May-04 23:30S 28°11' E 153°33'0 0.8
2018-May-04 23:00S 28°11' E 153°33'3 6.9
2018-May-04 22:30S 28°13' E 153°36'2 3.2
2018-May-04 22:01S 28°12' E 153°34'2 4.2
2018-May-04 21:30S 28°11' E 153°33'0 0.0
2018-May-04 20:59S 28°11' E 153°33'0 0.0
2018-May-04 05:22S 28°11' E 153°33'1 3.5
2018-May-04 05:00S 28°10' E 153°33'1 2.5
2018-May-04 04:29S 28°11' E 153°33'  

Dump ship's entire track history